Time;durP1;ratioP1;P1;durP2;ratioP2;P2;SDS_P1;SDS_P2;PMS_P1;PMS_P2;Temp;Humidity;BMP_temperature;BMP_pressure;BME280_temperature;BME280_humidity;BME280_pressure;Samples;Min_cycle;Max_cycle;Signal;HPM_P1;HPM_P2
2021/11/12 00:13:19;;;;;;;46.70;17.73;;;;;;;;;;5132194;27;20278;-72
2021/11/12 00:15:49;;;;;;;42.90;17.73;;;;;;;;;;5136425;27;20199;-72
2021/11/12 00:18:19;;;;;;;41.70;17.50;;;;;;;;;;5137430;27;20238;-72
2021/11/12 00:20:47;;;;;;;39.73;17.30;;;;;;;;;;5130431;27;20306;-72
2021/11/12 00:23:14;;;;;;;34.17;16.57;;;;;;;;;;5133059;27;20259;-72
2021/11/12 00:25:42;;;;;;;31.90;16.17;;;;;;;;;;5117300;27;20239;-71
2021/11/12 00:28:10;;;;;;;34.23;14.97;;;;;;;;;;5119510;27;20618;-72
2021/11/12 00:30:50;;;;;;;35.47;15.77;;;;;;;;;;5116808;27;20220;-72
2021/11/12 00:33:36;;;;;;;36.17;15.00;;;;;;;;;;5116862;27;20256;-72
2021/11/12 00:36:14;;;;;;;31.63;15.17;;;;;;;;;;5118092;27;20204;-71
2021/11/12 00:38:44;;;;;;;35.30;15.67;;;;;;;;;;5118838;27;20545;-72
2021/11/12 00:41:18;;;;;;;38.80;17.03;;;;;;;;;;5117112;27;20201;-72
2021/11/12 00:43:47;;;;;;;33.23;16.20;;;;;;;;;;5119844;27;20200;-71
2021/11/12 00:46:18;;;;;;;35.73;15.87;;;;;;;;;;5118338;27;20200;-74
2021/11/12 00:48:49;;;;;;;36.20;16.63;;;;;;;;;;5118937;27;20196;-72
2021/11/12 00:51:22;;;;;;;35.30;16.00;;;;;;;;;;5116894;27;20201;-74
2021/11/12 00:53:53;;;;;;;35.87;16.47;;;;;;;;;;5116057;27;20320;-72
2021/11/12 00:56:22;;;;;;;39.77;17.60;;;;;;;;;;5121001;27;20203;-72
2021/11/12 00:58:49;;;;;;;36.20;16.57;;;;;;;;;;5114136;27;20215;-74
2021/11/12 01:01:16;;;;;;;39.60;17.60;;;;;;;;;;5119044;27;20294;-74
2021/11/12 01:03:44;;;;;;;37.53;17.17;;;;;;;;;;5117591;27;20200;-74
2021/11/12 01:06:12;;;;;;;37.63;15.33;;;;;;;;;;5116988;27;20639;-74
2021/11/12 01:08:40;;;;;;;32.70;15.63;;;;;;;;;;5116326;27;20311;-73
2021/11/12 01:11:07;;;;;;;29.40;14.57;;;;;;;;;;5117526;27;20216;-74
2021/11/12 01:13:35;;;;;;;29.40;14.13;;;;;;;;;;5119193;27;20231;-74
2021/11/12 01:16:03;;;;;;;29.50;13.90;;;;;;;;;;5115017;27;20265;-75
2021/11/12 01:18:30;;;;;;;28.27;14.50;;;;;;;;;;5118009;27;20197;-74
2021/11/12 01:20:57;;;;;;;34.23;14.43;;;;;;;;;;5114978;27;20307;-74
2021/11/12 01:23:26;;;;;;;28.83;13.73;;;;;;;;;;5119053;27;20205;-74
2021/11/12 01:25:53;;;;;;;31.93;14.97;;;;;;;;;;5116509;27;20288;-74
2021/11/12 01:28:20;;;;;;;27.37;14.67;;;;;;;;;;5118957;27;20287;-74
2021/11/12 01:30:47;;;;;;;33.57;15.80;;;;;;;;;;5117257;27;20220;-74
2021/11/12 01:33:15;;;;;;;37.97;16.37;;;;;;;;;;5122508;27;20749;-74
2021/11/12 01:35:42;;;;;;;32.80;15.40;;;;;;;;;;5114483;27;20279;-74
2021/11/12 01:38:10;;;;;;;34.20;15.60;;;;;;;;;;5117092;27;20211;-74
2021/11/12 01:40:38;;;;;;;32.47;15.23;;;;;;;;;;5119740;27;20315;-74
2021/11/12 01:43:10;;;;;;;31.97;14.80;;;;;;;;;;5118472;27;20249;-74
2021/11/12 01:48:43;;;;;;;35.07;15.77;;;;;;;;;;5114793;27;20239;-74
2021/11/12 01:51:13;;;;;;;35.13;14.97;;;;;;;;;;5115943;27;20269;-74
2021/11/12 01:53:44;;;;;;;31.93;14.70;;;;;;;;;;5122262;27;20217;-74
2021/11/12 01:56:35;;;;;;;30.83;15.10;;;;;;;;;;5116844;27;20689;-74
2021/11/12 01:59:12;;;;;;;34.13;14.87;;;;;;;;;;5117041;27;20204;-74
2021/11/12 02:01:44;;;;;;;29.67;15.27;;;;;;;;;;5116028;27;20289;-74
2021/11/12 02:04:12;;;;;;;31.37;14.97;;;;;;;;;;5123684;27;20257;-74
2021/11/12 02:06:40;;;;;;;29.77;15.10;;;;;;;;;;5116471;27;20205;-74
2021/11/12 02:09:18;;;;;;;36.00;15.20;;;;;;;;;;5113470;27;20221;-71
2021/11/12 02:11:50;;;;;;;31.87;14.93;;;;;;;;;;5114759;27;20258;-74
2021/11/12 02:14:18;;;;;;;41.33;16.23;;;;;;;;;;5117524;27;20220;-74
2021/11/12 02:16:54;;;;;;;35.93;15.87;;;;;;;;;;5114818;27;20204;-72
2021/11/12 02:19:22;;;;;;;37.33;15.90;;;;;;;;;;5116900;27;20212;-74
2021/11/12 02:22:01;;;;;;;35.37;15.77;;;;;;;;;;5116121;27;20745;-74
2021/11/12 02:24:29;;;;;;;32.90;14.17;;;;;;;;;;5116470;27;20231;-74
2021/11/12 02:26:58;;;;;;;33.27;16.20;;;;;;;;;;5114249;27;20895;-74
2021/11/12 02:29:26;;;;;;;31.47;14.57;;;;;;;;;;5113283;27;20224;-74
2021/11/12 02:31:54;;;;;;;33.30;14.70;;;;;;;;;;5114837;27;20200;-74
2021/11/12 02:34:21;;;;;;;35.97;15.93;;;;;;;;;;5115421;27;20251;-74
2021/11/12 02:36:48;;;;;;;31.90;14.87;;;;;;;;;;5116825;27;20835;-74
2021/11/12 02:39:17;;;;;;;32.40;15.33;;;;;;;;;;5111368;27;20243;-74
2021/11/12 02:41:45;;;;;;;33.70;14.93;;;;;;;;;;5116896;27;20287;-74
2021/11/12 02:44:12;;;;;;;32.27;13.93;;;;;;;;;;5118569;27;20201;-73
2021/11/12 02:46:40;;;;;;;31.60;14.67;;;;;;;;;;5114691;27;20215;-73
2021/11/12 02:49:08;;;;;;;30.73;14.07;;;;;;;;;;5113486;27;20239;-74
2021/11/12 02:51:36;;;;;;;32.33;14.37;;;;;;;;;;5120587;27;20200;-73
2021/11/12 02:54:06;;;;;;;34.33;14.53;;;;;;;;;;5115639;27;20311;-73
2021/11/12 02:56:34;;;;;;;31.37;14.93;;;;;;;;;;5118754;27;20295;-73
2021/11/12 02:59:03;;;;;;;35.60;14.27;;;;;;;;;;5118751;27;20227;-73
2021/11/12 03:01:31;;;;;;;32.27;14.43;;;;;;;;;;5113813;27;20586;-73
2021/11/12 03:03:58;;;;;;;32.87;15.90;;;;;;;;;;5114295;27;20264;-74
2021/11/12 03:06:26;;;;;;;34.80;14.67;;;;;;;;;;5113920;27;20231;-73
2021/11/12 03:08:53;;;;;;;34.10;14.33;;;;;;;;;;5114486;27;20292;-74
2021/11/12 03:11:21;;;;;;;28.87;13.83;;;;;;;;;;5113857;28;20291;-74
2021/11/12 03:13:50;;;;;;;26.57;14.20;;;;;;;;;;5119819;27;20311;-74
2021/11/12 03:16:17;;;;;;;34.83;14.73;;;;;;;;;;5114798;27;20197;-73
2021/11/12 03:18:45;;;;;;;32.63;14.57;;;;;;;;;;5118797;27;20291;-73
2021/11/12 03:21:15;;;;;;;33.40;14.43;;;;;;;;;;5113364;28;20276;-73
2021/11/12 03:23:47;;;;;;;31.90;14.57;;;;;;;;;;5115310;27;20254;-73
2021/11/12 03:26:20;;;;;;;29.20;14.17;;;;;;;;;;5117105;27;20291;-73
2021/11/12 03:29:10;;;;;;;27.93;14.37;;;;;;;;;;5117755;27;20202;-74
2021/11/12 04:02:05;;;;;;;33.30;14.40;;;;;;;;;;5119994;27;20945;-73
2021/11/12 04:04:41;;;;;;;32.37;14.77;;;;;;;;;;5118912;27;20200;-73
2021/11/12 04:18:19;;;;;;;34.43;16.03;;;;;;;;;;5117670;27;20563;-73
2021/11/12 04:20:56;;;;;;;33.27;15.00;;;;;;;;;;5114677;27;20232;-74
2021/11/12 05:10:23;;;;;;;35.63;16.30;;;;;;;;;;5120781;27;20231;-72
2021/11/12 05:43:40;;;;;;;44.37;20.03;;;;;;;;;;5116829;27;20204;-72
2021/11/12 05:46:18;;;;;;;51.97;19.53;;;;;;;;;;5116235;27;20223;-72
2021/11/12 05:51:35;;;;;;;50.37;20.10;;;;;;;;;;5116897;27;20200;-72
2021/11/12 05:56:50;;;;;;;48.40;21.47;;;;;;;;;;5103495;27;20644;-72
2021/11/12 05:59:18;;;;;;;48.30;19.97;;;;;;;;;;5103748;27;20212;-72
2021/11/12 06:01:47;;;;;;;52.13;19.50;;;;;;;;;;5101097;27;20208;-72
2021/11/12 06:04:15;;;;;;;50.60;20.70;;;;;;;;;;5108568;27;20199;-73
2021/11/12 06:06:42;;;;;;;44.23;18.27;;;;;;;;;;5106821;27;20204;-72
2021/11/12 06:09:10;;;;;;;54.17;21.67;;;;;;;;;;5112106;27;20264;-72
2021/11/12 06:11:37;;;;;;;50.77;21.53;;;;;;;;;;5116296;27;20228;-71
2021/11/12 06:14:06;;;;;;;52.20;20.97;;;;;;;;;;5116777;27;20783;-73
2021/11/12 06:16:34;;;;;;;50.40;20.77;;;;;;;;;;5113252;27;20272;-72
2021/11/12 06:19:01;;;;;;;51.73;20.47;;;;;;;;;;5114869;27;20628;-73
2021/11/12 06:21:29;;;;;;;51.90;19.63;;;;;;;;;;5112837;27;20299;-72
2021/11/12 06:23:56;;;;;;;48.20;19.10;;;;;;;;;;5111051;27;20189;-73
2021/11/12 06:26:24;;;;;;;50.77;19.63;;;;;;;;;;5113523;27;20366;-72
2021/11/12 06:28:52;;;;;;;51.90;19.20;;;;;;;;;;5114785;27;20228;-75
2021/11/12 06:31:21;;;;;;;44.47;18.43;;;;;;;;;;5116990;27;20296;-73
2021/11/12 06:33:48;;;;;;;52.90;18.03;;;;;;;;;;5115413;27;20666;-72
2021/11/12 06:36:17;;;;;;;57.27;19.53;;;;;;;;;;5113208;27;20208;-72
2021/11/12 06:38:44;;;;;;;47.17;19.20;;;;;;;;;;5113564;27;20585;-73
2021/11/12 06:41:13;;;;;;;47.90;18.93;;;;;;;;;;5117009;27;20693;-72
2021/11/12 06:43:51;;;;;;;46.07;18.17;;;;;;;;;;5118169;27;20209;-73
2021/11/12 06:49:22;;;;;;;42.73;17.33;;;;;;;;;;5114015;27;20211;-74
2021/11/12 06:51:49;;;;;;;42.23;17.20;;;;;;;;;;5115969;27;20778;-74
2021/11/12 06:54:16;;;;;;;48.13;18.37;;;;;;;;;;5117781;27;20694;-74
2021/11/12 06:56:44;;;;;;;51.33;19.77;;;;;;;;;;5115263;27;20208;-73
2021/11/12 06:59:11;;;;;;;52.70;17.37;;;;;;;;;;5114365;22;20243;-74
2021/11/12 07:01:38;;;;;;;46.80;18.43;;;;;;;;;;5056287;28;20643;-75
2021/11/12 07:04:07;;;;;;;53.17;19.00;;;;;;;;;;5057577;28;20256;-74
2021/11/12 07:06:36;;;;;;;44.37;17.13;;;;;;;;;;5056172;28;20292;-75
2021/11/12 07:09:03;;;;;;;49.03;17.40;;;;;;;;;;5053864;28;20202;-73
2021/11/12 07:11:30;;;;;;;43.10;16.60;;;;;;;;;;5052120;28;20854;-74
2021/11/12 07:13:57;;;;;;;41.70;15.53;;;;;;;;;;5048360;28;20279;-74
2021/11/12 07:16:25;;;;;;;34.57;11.77;;;;;;;;;;5053315;28;21155;-74
2021/11/12 07:18:54;;;;;;;33.63;12.17;;;;;;;;;;5054237;28;20328;-74
2021/11/12 07:21:23;;;;;;;36.60;13.70;;;;;;;;;;5055059;28;20263;-74
2021/11/12 07:23:50;;;;;;;30.13;11.07;;;;;;;;;;5050515;28;20255;-74
2021/11/12 07:26:18;;;;;;;30.67;11.70;;;;;;;;;;5053565;28;20286;-74
2021/11/12 07:28:47;;;;;;;36.93;12.20;;;;;;;;;;5055399;28;20296;-74
2021/11/12 07:31:16;;;;;;;35.20;12.63;;;;;;;;;;5054223;28;20204;-74
2021/11/12 07:33:44;;;;;;;35.73;13.00;;;;;;;;;;5055419;28;20620;-73
2021/11/12 07:36:18;;;;;;;34.47;11.90;;;;;;;;;;5056754;28;20723;-74
2021/11/12 07:38:50;;;;;;;30.93;11.77;;;;;;;;;;5063178;28;20221;-73
2021/11/12 07:41:40;;;;;;;32.33;12.40;;;;;;;;;;5055080;28;20289;-74
2021/11/12 07:46:59;;;;;;;30.70;11.07;;;;;;;;;;5035959;28;20234;-73
2021/11/12 07:49:26;;;;;;;32.03;10.90;;;;;;;;;;5057783;28;20278;-74
2021/11/12 07:51:55;;;;;;;29.17;10.80;;;;;;;;;;5060369;28;20232;-73
2021/11/12 07:54:23;;;;;;;31.33;11.97;;;;;;;;;;5057295;28;20225;-74
2021/11/12 07:56:51;;;;;;;36.00;11.90;;;;;;;;;;5058193;28;20640;-74
2021/11/12 07:59:18;;;;;;;37.43;12.10;;;;;;;;;;5059945;28;20240;-74
2021/11/12 08:01:46;;;;;;;30.73;10.50;;;;;;;;;;5059593;28;20267;-73
2021/11/12 08:04:13;;;;;;;35.90;11.63;;;;;;;;;;5057232;28;20205;-74
2021/11/12 08:06:40;;;;;;;34.80;11.83;;;;;;;;;;5052568;28;20819;-73
2021/11/12 08:09:10;;;;;;;36.07;11.57;;;;;;;;;;5050819;28;20679;-74
2021/11/12 08:11:42;;;;;;;36.03;11.73;;;;;;;;;;5054033;28;20309;-74
2021/11/12 08:14:12;;;;;;;40.63;13.87;;;;;;;;;;5055544;28;20202;-74
2021/11/12 08:16:52;;;;;;;35.30;12.97;;;;;;;;;;5057115;28;20822;-74
2021/11/12 08:19:22;;;;;;;35.03;13.27;;;;;;;;;;5057930;28;20241;-73
2021/11/12 08:21:55;;;;;;;40.03;13.73;;;;;;;;;;5060538;28;20203;-74
2021/11/12 08:24:41;;;;;;;38.50;14.33;;;;;;;;;;5062129;28;20210;-74
2021/11/12 08:27:29;;;;;;;38.77;13.43;;;;;;;;;;5059736;28;20208;-73
2021/11/12 08:32:56;;;;;;;31.47;12.10;;;;;;;;;;5034934;28;20206;-74
2021/11/12 08:35:37;;;;;;;30.13;12.13;;;;;;;;;;5054341;28;20653;-74
2021/11/12 08:38:12;;;;;;;25.40;10.90;;;;;;;;;;5052060;28;20216;-73
2021/11/12 08:40:51;;;;;;;28.03;11.83;;;;;;;;;;5057282;28;20274;-73
2021/11/12 08:43:23;;;;;;;29.63;11.67;;;;;;;;;;5058728;28;20664;-73
2021/11/12 08:46:03;;;;;;;29.20;11.67;;;;;;;;;;5055772;28;20206;-73
2021/11/12 08:48:39;;;;;;;27.30;10.87;;;;;;;;;;5054405;28;20202;-73
2021/11/12 08:51:12;;;;;;;26.87;10.53;;;;;;;;;;5057808;28;20306;-74
2021/11/12 08:53:39;;;;;;;32.20;12.13;;;;;;;;;;5057488;28;20213;-74
2021/11/12 08:56:12;;;;;;;30.73;12.73;;;;;;;;;;5056882;28;20429;-74
2021/11/12 08:58:41;;;;;;;27.33;10.77;;;;;;;;;;5059221;28;20211;-74
2021/11/12 09:01:09;;;;;;;29.70;12.50;;;;;;;;;;5054711;28;20246;-74
2021/11/12 09:03:37;;;;;;;32.23;12.90;;;;;;;;;;5056045;28;20672;-74
2021/11/12 09:06:05;;;;;;;23.50;10.23;;;;;;;;;;5055353;28;20198;-74
2021/11/12 09:08:33;;;;;;;27.63;10.63;;;;;;;;;;5055376;28;20290;-73
2021/11/12 09:11:01;;;;;;;26.47;10.53;;;;;;;;;;5057507;28;20717;-73
2021/11/12 09:13:31;;;;;;;23.10;10.50;;;;;;;;;;5056440;28;20213;-74
2021/11/12 09:16:04;;;;;;;25.97;10.30;;;;;;;;;;5054939;28;20223;-73
2021/11/12 09:18:31;;;;;;;27.33;11.53;;;;;;;;;;5064512;28;20203;-73
2021/11/12 09:20:59;;;;;;;23.53;9.97;;;;;;;;;;5058631;28;20230;-73
2021/11/12 09:23:26;;;;;;;25.03;9.90;;;;;;;;;;5053994;28;20512;-74
2021/11/12 09:25:53;;;;;;;26.80;10.57;;;;;;;;;;5056431;28;20668;-74
2021/11/12 09:28:20;;;;;;;23.07;10.27;;;;;;;;;;5061298;28;20259;-74
2021/11/12 09:30:48;;;;;;;23.00;9.80;;;;;;;;;;5058196;28;20284;-73
2021/11/12 09:33:17;;;;;;;22.97;9.13;;;;;;;;;;5058444;28;20218;-73
2021/11/12 09:35:44;;;;;;;23.80;10.47;;;;;;;;;;5055275;28;20305;-73
2021/11/12 09:38:12;;;;;;;20.27;9.00;;;;;;;;;;5057948;28;20205;-73
2021/11/12 09:40:39;;;;;;;21.67;9.70;;;;;;;;;;5057263;28;20313;-73
2021/11/12 09:43:06;;;;;;;23.03;9.23;;;;;;;;;;5054834;28;20202;-74
2021/11/12 09:45:33;;;;;;;23.93;10.23;;;;;;;;;;5058147;28;20204;-74
2021/11/12 09:48:01;;;;;;;21.47;9.63;;;;;;;;;;5057206;28;20230;-74
2021/11/12 09:50:31;;;;;;;18.93;9.27;;;;;;;;;;5055718;28;20265;-73
2021/11/12 09:52:59;;;;;;;22.17;9.43;;;;;;;;;;5060875;28;20233;-73
2021/11/12 09:55:26;;;;;;;19.60;9.20;;;;;;;;;;5059356;28;20222;-74
2021/11/12 09:57:54;;;;;;;28.00;11.50;;;;;;;;;;5057837;28;20317;-74
2021/11/12 10:00:23;;;;;;;27.93;11.00;;;;;;;;;;5061759;28;20250;-74
2021/11/12 10:02:52;;;;;;;27.90;11.70;;;;;;;;;;5055428;28;20214;-73
2021/11/12 10:05:32;;;;;;;29.23;12.37;;;;;;;;;;5059415;28;20213;-73
2021/11/12 10:08:01;;;;;;;25.13;10.93;;;;;;;;;;5058488;28;20218;-73
2021/11/12 10:10:29;;;;;;;27.97;11.90;;;;;;;;;;5056489;28;20303;-73
2021/11/12 10:12:57;;;;;;;29.13;11.30;;;;;;;;;;5059576;28;20285;-74
2021/11/12 10:15:28;;;;;;;32.53;11.93;;;;;;;;;;5055069;28;20233;-74
2021/11/12 10:18:05;;;;;;;27.63;10.73;;;;;;;;;;5057269;28;20260;-74
2021/11/12 10:20:32;;;;;;;28.27;11.40;;;;;;;;;;5055200;28;20301;-74
2021/11/12 10:22:59;;;;;;;28.30;12.40;;;;;;;;;;5055713;28;20798;-74
2021/11/12 10:25:28;;;;;;;26.43;11.00;;;;;;;;;;5054784;28;20250;-74
2021/11/12 10:27:56;;;;;;;25.00;10.60;;;;;;;;;;5056511;28;20230;-74
2021/11/12 10:30:24;;;;;;;28.97;11.77;;;;;;;;;;5051395;28;21648;-73
2021/11/12 10:32:54;;;;;;;29.80;11.97;;;;;;;;;;5053754;28;20213;-74
2021/11/12 10:35:23;;;;;;;28.63;11.50;;;;;;;;;;5053317;28;20329;-73
2021/11/12 10:37:51;;;;;;;37.33;13.03;;;;;;;;;;5056066;28;20282;-74
2021/11/12 10:40:19;;;;;;;30.03;12.07;;;;;;;;;;5057040;28;20219;-74
2021/11/12 10:42:49;;;;;;;32.23;12.10;;;;;;;;;;5056783;28;20230;-74
2021/11/12 10:45:19;;;;;;;28.27;10.43;;;;;;;;;;5055389;28;20674;-74
2021/11/12 10:47:47;;;;;;;26.07;10.67;;;;;;;;;;5057631;28;20217;-74
2021/11/12 10:50:14;;;;;;;29.43;12.43;;;;;;;;;;5053334;28;20215;-76
2021/11/12 10:52:42;;;;;;;36.90;12.90;;;;;;;;;;5055790;28;20234;-74
2021/11/12 10:55:12;;;;;;;33.57;11.97;;;;;;;;;;5055843;28;20260;-76
2021/11/12 10:57:41;;;;;;;32.07;12.17;;;;;;;;;;5055902;28;20225;-76
2021/11/12 11:00:12;;;;;;;32.60;12.37;;;;;;;;;;5056374;28;20263;-76
2021/11/12 11:02:41;;;;;;;27.97;11.90;;;;;;;;;;5049458;28;20301;-76
2021/11/12 11:05:10;;;;;;;28.03;11.10;;;;;;;;;;5053218;28;20671;-76
2021/11/12 11:07:37;;;;;;;27.77;11.23;;;;;;;;;;5057019;28;20217;-75
2021/11/12 11:10:05;;;;;;;27.13;10.77;;;;;;;;;;5053977;28;20222;-76
2021/11/12 11:12:34;;;;;;;33.37;12.17;;;;;;;;;;5053985;28;20293;-76
2021/11/12 11:15:16;;;;;;;27.70;11.43;;;;;;;;;;5055843;28;20289;-76
2021/11/12 11:17:45;;;;;;;29.27;11.67;;;;;;;;;;5052239;28;20198;-75
2021/11/12 11:20:16;;;;;;;31.63;11.93;;;;;;;;;;5051057;28;20227;-75
2021/11/12 11:22:47;;;;;;;28.77;11.07;;;;;;;;;;5055393;28;20206;-76
2021/11/12 11:25:14;;;;;;;25.73;10.40;;;;;;;;;;5052124;28;20329;-75
2021/11/12 11:27:43;;;;;;;26.13;10.87;;;;;;;;;;5052445;28;20233;-75
2021/11/12 11:30:12;;;;;;;25.53;10.80;;;;;;;;;;5055003;28;20316;-75
2021/11/12 11:32:40;;;;;;;25.03;10.17;;;;;;;;;;5053988;28;20202;-75
2021/11/12 11:35:08;;;;;;;31.10;11.60;;;;;;;;;;5051404;28;20213;-75
2021/11/12 11:37:36;;;;;;;31.77;12.30;;;;;;;;;;5052847;28;20297;-75
2021/11/12 11:40:04;;;;;;;29.80;12.10;;;;;;;;;;5053531;28;20257;-75
2021/11/12 11:42:32;;;;;;;34.13;12.00;;;;;;;;;;5054814;28;20235;-74
2021/11/12 11:45:00;;;;;;;34.93;13.43;;;;;;;;;;5049403;28;20206;-75
2021/11/12 11:47:28;;;;;;;32.77;13.27;;;;;;;;;;5052597;28;20213;-75
2021/11/12 11:49:58;;;;;;;32.50;12.53;;;;;;;;;;5053548;28;20281;-75
2021/11/12 11:52:26;;;;;;;32.87;13.27;;;;;;;;;;5052040;28;20213;-75
2021/11/12 11:54:54;;;;;;;34.27;13.67;;;;;;;;;;5050459;28;20680;-75
2021/11/12 11:57:23;;;;;;;28.93;12.67;;;;;;;;;;5047508;28;20317;-75
2021/11/12 12:00:11;;;;;;;34.67;13.27;;;;;;;;;;5046853;28;20658;-75
2021/11/12 12:02:38;;;;;;;30.50;12.53;;;;;;;;;;5044870;28;20320;-75
2021/11/12 12:05:08;;;;;;;35.53;12.97;;;;;;;;;;5043200;28;20639;-75
2021/11/12 12:07:43;;;;;;;30.77;12.03;;;;;;;;;;5045172;28;20217;-74
2021/11/12 12:10:18;;;;;;;38.10;14.13;;;;;;;;;;5047974;28;20221;-74
2021/11/12 12:12:49;;;;;;;35.40;13.87;;;;;;;;;;5047450;28;20198;-75
2021/11/12 12:15:50;;;;;;;32.83;13.17;;;;;;;;;;5046020;28;21509;-74
2021/11/12 12:18:18;;;;;;;32.70;12.30;;;;;;;;;;5047056;28;20755;-74
2021/11/12 12:21:15;;;;;;;31.13;12.23;;;;;;;;;;5046362;28;20307;-75
2021/11/12 12:35:21;;;;;;;33.47;13.07;;;;;;;;;;5055973;28;20210;-74
2021/11/12 12:41:36;;;;;;;38.47;13.20;;;;;;;;;;5009294;28;20227;-75
2021/11/12 13:23:34;;;;;;;42.20;15.43;;;;;;;;;;5009903;28;20187;-75
2021/11/12 13:26:01;;;;;;;40.40;14.93;;;;;;;;;;5010586;28;20267;-75
2021/11/12 13:28:30;;;;;;;43.03;15.87;;;;;;;;;;5026126;28;20232;-74
2021/11/12 13:30:59;;;;;;;40.37;16.03;;;;;;;;;;5053214;28;20314;-73
2021/11/12 13:33:34;;;;;;;37.43;15.27;;;;;;;;;;5058376;28;20290;-72
2021/11/12 13:36:02;;;;;;;34.30;13.60;;;;;;;;;;5055661;28;20327;-73
2021/11/12 13:38:41;;;;;;;42.23;16.73;;;;;;;;;;5055172;28;20202;-73
2021/11/12 13:41:10;;;;;;;34.07;14.23;;;;;;;;;;5055637;28;20218;-72
2021/11/12 13:43:41;;;;;;;31.40;13.57;;;;;;;;;;5056456;28;20294;-74
2021/11/12 13:46:10;;;;;;;31.47;13.07;;;;;;;;;;5051384;28;20325;-73
2021/11/12 13:48:45;;;;;;;34.27;13.80;;;;;;;;;;5053527;28;20209;-73
2021/11/12 13:51:12;;;;;;;33.30;14.40;;;;;;;;;;5054944;28;20316;-73
2021/11/12 13:53:40;;;;;;;30.73;12.83;;;;;;;;;;5059522;28;20214;-73
2021/11/12 13:56:08;;;;;;;34.33;13.97;;;;;;;;;;5047534;28;20353;-73
2021/11/12 13:58:36;;;;;;;31.20;13.67;;;;;;;;;;5053705;28;20305;-73
2021/11/12 14:01:04;;;;;;;34.47;13.80;;;;;;;;;;5052947;28;20233;-74
2021/11/12 14:03:37;;;;;;;33.00;14.27;;;;;;;;;;5054313;28;20288;-73
2021/11/12 14:06:09;;;;;;;34.10;15.10;;;;;;;;;;5054137;28;20378;-73
2021/11/12 14:08:37;;;;;;;30.60;13.40;;;;;;;;;;5052103;28;20206;-73
2021/11/12 14:11:06;;;;;;;35.30;14.53;;;;;;;;;;5053317;28;20245;-73
2021/11/12 14:13:38;;;;;;;36.00;15.20;;;;;;;;;;5057894;28;20206;-74
2021/11/12 14:16:11;;;;;;;31.73;14.10;;;;;;;;;;5053549;28;20253;-74
2021/11/12 14:18:48;;;;;;;35.30;14.37;;;;;;;;;;5054242;28;20209;-74
2021/11/12 14:21:25;;;;;;;37.83;14.97;;;;;;;;;;5054998;28;20243;-73
2021/11/12 14:24:18;;;;;;;38.10;15.20;;;;;;;;;;5053411;28;20208;-73
2021/11/12 14:26:51;;;;;;;40.47;16.30;;;;;;;;;;5052594;28;20201;-73
2021/11/12 14:32:47;;;;;;;36.57;14.20;;;;;;;;;;4924095;28;20201;-73
2021/11/12 14:35:26;;;;;;;35.13;15.20;;;;;;;;;;5053801;28;20207;-73
2021/11/12 14:38:04;;;;;;;38.43;15.30;;;;;;;;;;5055304;28;20291;-73
2021/11/12 14:40:51;;;;;;;34.00;14.27;;;;;;;;;;5053048;28;20230;-73
2021/11/12 14:43:26;;;;;;;32.73;13.63;;;;;;;;;;5054399;28;20245;-73
2021/11/12 14:46:10;;;;;;;34.10;13.90;;;;;;;;;;5052231;28;20260;-73
2021/11/12 14:48:42;;;;;;;33.00;14.17;;;;;;;;;;5054047;28;20641;-72
2021/11/12 14:51:13;;;;;;;38.03;15.07;;;;;;;;;;5053941;28;20238;-74
2021/11/12 14:53:42;;;;;;;37.47;15.03;;;;;;;;;;5052553;28;20199;-74
2021/11/12 14:56:12;;;;;;;38.57;15.77;;;;;;;;;;5054585;28;20875;-74
2021/11/12 14:58:42;;;;;;;39.40;15.70;;;;;;;;;;5054220;28;20241;-74
2021/11/12 15:01:10;;;;;;;36.20;14.87;;;;;;;;;;5055067;28;20240;-73
2021/11/12 15:03:39;;;;;;;42.77;16.43;;;;;;;;;;5055006;28;20213;-74
2021/11/12 15:06:07;;;;;;;40.40;16.30;;;;;;;;;;5052911;28;20212;-74
2021/11/12 15:08:42;;;;;;;37.37;16.47;;;;;;;;;;5055165;28;20660;-73
2021/11/12 15:11:10;;;;;;;39.33;15.37;;;;;;;;;;5060176;28;20655;-74
2021/11/12 15:13:38;;;;;;;39.50;16.37;;;;;;;;;;5055971;28;20225;-73
2021/11/12 15:16:11;;;;;;;44.83;16.70;;;;;;;;;;5056677;28;20214;-73
2021/11/12 15:18:38;;;;;;;40.70;16.20;;;;;;;;;;5066111;23;20237;-78
2021/11/12 15:21:12;;;;;;;44.73;16.87;;;;;;;;;;5034565;28;20267;-75
2021/11/12 15:26:31;;;;;;;41.07;16.37;;;;;;;;;;5027926;28;20204;-75
2021/11/12 15:29:07;;;;;;;48.20;16.93;;;;;;;;;;5032417;28;20203;-76
2021/11/12 15:31:37;;;;;;;41.73;16.23;;;;;;;;;;5030369;28;20260;-76
2021/11/12 15:34:07;;;;;;;43.27;16.57;;;;;;;;;;5027758;28;20627;-78
2021/11/12 15:36:41;;;;;;;42.57;15.87;;;;;;;;;;5025987;28;20257;-76
2021/11/12 15:39:12;;;;;;;39.80;15.93;;;;;;;;;;5030847;28;20304;-77
2021/11/12 15:44:25;;;;;;;43.33;16.40;;;;;;;;;;5019441;28;20204;-78
2021/11/12 15:47:03;;;;;;;45.03;17.37;;;;;;;;;;5023906;28;21449;-77
2021/11/12 15:49:30;;;;;;;46.50;16.87;;;;;;;;;;5030785;28;20319;-76
2021/11/12 15:51:59;;;;;;;42.43;16.90;;;;;;;;;;5030499;28;20203;-77
2021/11/12 16:08:32;;;;;;;44.57;16.33;;;;;;;;;;5025194;28;20229;-77
2021/11/12 16:13:50;;;;;;;47.90;17.67;;;;;;;;;;5027477;28;20287;-76
2021/11/12 16:16:33;;;;;;;47.30;17.37;;;;;;;;;;5030579;28;20213;-78
2021/11/12 16:19:06;;;;;;;41.50;15.67;;;;;;;;;;5029431;28;20223;-77
2021/11/12 16:24:43;;;;;;;44.33;16.63;;;;;;;;;;5018692;28;20299;-76
2021/11/12 16:27:12;;;;;;;41.03;14.73;;;;;;;;;;5025305;28;20203;-76
2021/11/12 16:29:42;;;;;;;42.23;16.60;;;;;;;;;;5022828;28;20230;-77
2021/11/12 16:32:12;;;;;;;42.77;16.27;;;;;;;;;;5022988;28;20942;-76
2021/11/12 16:34:44;;;;;;;42.10;16.33;;;;;;;;;;5023071;28;20211;-76
2021/11/12 16:37:12;;;;;;;41.13;16.07;;;;;;;;;;5016506;28;20373;-77
2021/11/12 16:39:44;;;;;;;42.03;15.67;;;;;;;;;;5010649;28;20230;-77
2021/11/12 16:45:10;;;;;;;44.23;15.57;;;;;;;;;;4991434;28;20564;-77
2021/11/12 16:53:22;;;;;;;44.60;16.60;;;;;;;;;;5043002;28;20198;-75
2021/11/12 16:58:37;;;;;;;45.53;15.83;;;;;;;;;;5029929;28;20262;-77
2021/11/12 17:04:11;;;;;;;46.00;16.87;;;;;;;;;;5114735;27;20716;-77
2021/11/12 17:06:44;;;;;;;50.10;16.77;;;;;;;;;;5093974;28;20213;-77
2021/11/12 17:09:22;;;;;;;43.13;16.53;;;;;;;;;;5093458;28;20522;-77
2021/11/12 17:11:53;;;;;;;52.40;17.30;;;;;;;;;;5092219;28;20307;-76
2021/11/12 17:14:33;;;;;;;47.97;16.80;;;;;;;;;;5092751;28;20210;-76
2021/11/12 17:17:21;;;;;;;51.30;17.33;;;;;;;;;;5091024;28;20201;-76
2021/11/12 17:19:59;;;;;;;53.43;18.30;;;;;;;;;;5095525;28;20223;-76
2021/11/12 17:45:03;;;;;;;48.70;16.53;;;;;;;;;;5060589;28;20269;-77
2021/11/12 17:47:32;;;;;;;53.50;17.00;;;;;;;;;;5093992;28;20232;-77
2021/11/12 17:50:06;;;;;;;49.07;16.60;;;;;;;;;;5093322;28;20225;-76
2021/11/12 17:53:06;;;;;;;52.00;17.90;;;;;;;;;;5099532;28;20205;-77
2021/11/12 18:03:52;;;;;;;49.03;16.20;;;;;;;;;;5092872;28;20232;-76
2021/11/12 18:06:21;;;;;;;49.67;16.63;;;;;;;;;;5089196;28;20222;-77
2021/11/12 18:09:16;;;;;;;53.30;18.20;;;;;;;;;;5090977;28;20289;-77
2021/11/12 18:17:49;;;;;;;44.40;15.40;;;;;;;;;;5082314;28;20284;-77
2021/11/12 18:23:30;;;;;;;44.67;15.67;;;;;;;;;;5078983;28;20225;-77
2021/11/12 21:45:53;;;;;;;33.93;12.70;;;;;;;;;;5073193;28;20234;-77
2021/11/12 21:48:21;;;;;;;36.87;12.53;;;;;;;;;;5074901;28;20233;-77
2021/11/12 21:50:51;;;;;;;33.60;12.17;;;;;;;;;;5077542;28;20276;-78
2021/11/12 21:53:22;;;;;;;31.87;12.33;;;;;;;;;;5083527;28;20206;-78
2021/11/12 21:55:49;;;;;;;37.33;13.07;;;;;;;;;;5082840;28;20205;-78
2021/11/12 21:58:16;;;;;;;35.30;12.83;;;;;;;;;;5082711;28;20205;-78
2021/11/12 22:00:46;;;;;;;33.07;11.57;;;;;;;;;;5082511;28;20260;-79
2021/11/12 22:03:13;;;;;;;33.87;12.23;;;;;;;;;;5083662;28;20236;-79
2021/11/12 22:05:40;;;;;;;39.70;13.03;;;;;;;;;;5072387;28;20209;-76
2021/11/12 22:08:08;;;;;;;35.10;12.47;;;;;;;;;;5074690;28;20218;-79
2021/11/12 22:10:37;;;;;;;42.47;12.83;;;;;;;;;;5073603;28;20318;-76
2021/11/12 22:13:04;;;;;;;37.73;12.87;;;;;;;;;;5075119;28;20284;-78
2021/11/12 22:15:31;;;;;;;50.17;11.73;;;;;;;;;;5079655;28;20274;-77
2021/11/12 22:17:59;;;;;;;32.70;12.07;;;;;;;;;;5080539;28;20214;-76
2021/11/12 22:20:26;;;;;;;36.33;12.03;;;;;;;;;;5073122;28;20222;-75
2021/11/12 22:22:53;;;;;;;31.10;11.13;;;;;;;;;;5071858;28;20228;-78
2021/11/12 22:25:21;;;;;;;34.90;12.00;;;;;;;;;;5081516;28;20229;-74
2021/11/12 22:27:49;;;;;;;36.17;12.30;;;;;;;;;;5077868;28;20751;-78
2021/11/12 22:30:16;;;;;;;36.53;11.90;;;;;;;;;;5083057;28;20312;-79
2021/11/12 22:32:44;;;;;;;34.47;12.40;;;;;;;;;;5077063;28;20213;-77
2021/11/12 22:35:11;;;;;;;30.70;11.07;;;;;;;;;;5079157;28;20239;-78
2021/11/12 22:37:39;;;;;;;32.03;11.43;;;;;;;;;;5080296;28;20198;-76
2021/11/12 22:40:07;;;;;;;28.03;10.90;;;;;;;;;;5078969;28;20279;-78
2021/11/12 22:42:35;;;;;;;31.67;10.33;;;;;;;;;;5084545;28;20291;-78
2021/11/12 22:45:04;;;;;;;27.80;10.37;;;;;;;;;;5081901;28;20237;-76